sensor_id;sensor_type;location;lat;lon;timestamp;pressure;altitude;pressure_sealevel;temperature;humidity
78888;BME280;68276;49.326;8.690;2023-04-25T00:00:31;99708.22;;;8.62;100.00
78888;BME280;68276;49.326;8.690;2023-04-25T00:02:56;99707.84;;;8.50;100.00
78888;BME280;68276;49.326;8.690;2023-04-25T00:05:23;99703.25;;;8.59;100.00
78888;BME280;68276;49.326;8.690;2023-04-25T00:07:49;99706.91;;;8.58;100.00
78888;BME280;68276;49.326;8.690;2023-04-25T00:10:15;99704.44;;;8.56;100.00
78888;BME280;68276;49.326;8.690;2023-04-25T00:12:41;99704.44;;;8.42;100.00
78888;BME280;68276;49.326;8.690;2023-04-25T00:15:07;99696.31;;;8.50;100.00
78888;BME280;68276;49.326;8.690;2023-04-25T00:17:32;99700.25;;;8.54;100.00
78888;BME280;68276;49.326;8.690;2023-04-25T00:19:58;99708.22;;;8.62;100.00
78888;BME280;68276;49.326;8.690;2023-04-25T00:22:23;99707.69;;;8.52;100.00
78888;BME280;68276;49.326;8.690;2023-04-25T00:24:49;99707.50;;;8.39;100.00
78888;BME280;68276;49.326;8.690;2023-04-25T00:27:15;99708.59;;;8.44;100.00
78888;BME280;68276;49.326;8.690;2023-04-25T00:29:40;99709.63;;;8.43;100.00
78888;BME280;68276;49.326;8.690;2023-04-25T00:32:05;99706.75;;;8.45;100.00
78888;BME280;68276;49.326;8.690;2023-04-25T00:34:31;99703.63;;;8.41;100.00
78888;BME280;68276;49.326;8.690;2023-04-25T00:36:56;99700.94;;;8.41;100.00
78888;BME280;68276;49.326;8.690;2023-04-25T00:39:22;99696.59;;;8.40;100.00
78888;BME280;68276;49.326;8.690;2023-04-25T00:41:47;99701.88;;;8.34;100.00
78888;BME280;68276;49.326;8.690;2023-04-25T00:44:14;99695.88;;;8.32;100.00
78888;BME280;68276;49.326;8.690;2023-04-25T00:46:42;99695.50;;;8.35;100.00
78888;BME280;68276;49.326;8.690;2023-04-25T00:49:07;99693.84;;;8.34;100.00
78888;BME280;68276;49.326;8.690;2023-04-25T00:51:33;99686.66;;;8.34;100.00
78888;BME280;68276;49.326;8.690;2023-04-25T00:53:59;99693.84;;;8.34;100.00
78888;BME280;68276;49.326;8.690;2023-04-25T00:56:25;99694.69;;;8.34;100.00
78888;BME280;68276;49.326;8.690;2023-04-25T00:58:53;99694.75;;;8.26;100.00
78888;BME280;68276;49.326;8.690;2023-04-25T01:01:19;99685.63;;;8.21;100.00
78888;BME280;68276;49.326;8.690;2023-04-25T01:03:46;99687.00;;;8.17;100.00
78888;BME280;68276;49.326;8.690;2023-04-25T01:06:11;99676.22;;;8.10;100.00
78888;BME280;68276;49.326;8.690;2023-04-25T01:08:38;99678.72;;;8.11;100.00
78888;BME280;68276;49.326;8.690;2023-04-25T01:11:05;99681.75;;;8.08;100.00
78888;BME280;68276;49.326;8.690;2023-04-25T01:13:30;99680.28;;;8.06;100.00
78888;BME280;68276;49.326;8.690;2023-04-25T01:15:57;99677.88;;;8.11;100.00
78888;BME280;68276;49.326;8.690;2023-04-25T01:18:22;99675.28;;;8.18;100.00
78888;BME280;68276;49.326;8.690;2023-04-25T01:20:50;99677.94;;;8.18;100.00
78888;BME280;68276;49.326;8.690;2023-04-25T01:23:16;99669.38;;;8.22;100.00
78888;BME280;68276;49.326;8.690;2023-04-25T01:25:41;99671.59;;;8.19;100.00
78888;BME280;68276;49.326;8.690;2023-04-25T01:28:07;99668.56;;;8.22;100.00
78888;BME280;68276;49.326;8.690;2023-04-25T01:30:33;99661.56;;;8.21;100.00
78888;BME280;68276;49.326;8.690;2023-04-25T01:32:59;99659.03;;;8.19;100.00
78888;BME280;68276;49.326;8.690;2023-04-25T01:35:25;99664.03;;;8.22;100.00
78888;BME280;68276;49.326;8.690;2023-04-25T01:37:51;99661.56;;;8.21;100.00
78888;BME280;68276;49.326;8.690;2023-04-25T01:40:17;99664.53;;;8.26;100.00
78888;BME280;68276;49.326;8.690;2023-04-25T01:42:44;99667.19;;;8.26;100.00
78888;BME280;68276;49.326;8.690;2023-04-25T01:45:10;99664.22;;;8.21;100.00
78888;BME280;68276;49.326;8.690;2023-04-25T01:47:37;99669.88;;;8.26;100.00
78888;BME280;68276;49.326;8.690;2023-04-25T01:50:05;99670.34;;;8.29;100.00
78888;BME280;68276;49.326;8.690;2023-04-25T01:52:31;99665.78;;;8.30;100.00
78888;BME280;68276;49.326;8.690;2023-04-25T01:54:57;99670.16;;;8.31;100.00
78888;BME280;68276;49.326;8.690;2023-04-25T01:57:24;99672.25;;;8.21;100.00
78888;BME280;68276;49.326;8.690;2023-04-25T01:59:50;99669.50;;;8.29;100.00
78888;BME280;68276;49.326;8.690;2023-04-25T02:02:16;99672.16;;;8.29;100.00
78888;BME280;68276;49.326;8.690;2023-04-25T02:04:41;99674.00;;;8.28;100.00
78888;BME280;68276;49.326;8.690;2023-04-25T02:07:07;99668.66;;;8.28;100.00
78888;BME280;68276;49.326;8.690;2023-04-25T02:09:32;99674.00;;;8.28;100.00
78888;BME280;68276;49.326;8.690;2023-04-25T02:11:58;99667.53;;;8.23;100.00
78888;BME280;68276;49.326;8.690;2023-04-25T02:14:23;99672.88;;;8.23;100.00
78888;BME280;68276;49.326;8.690;2023-04-25T02:16:48;99675.41;;;8.24;100.00
78888;BME280;68276;49.326;8.690;2023-04-25T02:19:14;99675.53;;;8.23;100.00
78888;BME280;68276;49.326;8.690;2023-04-25T02:21:39;99675.47;;;8.16;100.00
78888;BME280;68276;49.326;8.690;2023-04-25T02:24:05;99666.91;;;8.21;100.00
78888;BME280;68276;49.326;8.690;2023-04-25T02:26:31;99666.59;;;8.15;100.00
78888;BME280;68276;49.326;8.690;2023-04-25T02:28:57;99664.22;;;8.21;100.00
78888;BME280;68276;49.326;8.690;2023-04-25T02:31:22;99666.06;;;8.20;100.00
78888;BME280;68276;49.326;8.690;2023-04-25T02:33:48;99664.03;;;8.07;100.00
78888;BME280;68276;49.326;8.690;2023-04-25T02:36:13;99672.34;;;8.12;100.00
78888;BME280;68276;49.326;8.690;2023-04-25T02:38:39;99668.94;;;8.04;100.00
78888;BME280;68276;49.326;8.690;2023-04-25T02:41:05;99668.94;;;8.04;100.00
78888;BME280;68276;49.326;8.690;2023-04-25T02:43:30;99670.13;;;7.87;100.00
78888;BME280;68276;49.326;8.690;2023-04-25T02:45:55;99664.06;;;7.93;100.00
78888;BME280;68276;49.326;8.690;2023-04-25T02:48:21;99661.19;;;7.94;100.00
78888;BME280;68276;49.326;8.690;2023-04-25T02:50:46;99662.84;;;7.95;100.00
78888;BME280;68276;49.326;8.690;2023-04-25T02:53:12;99664.06;;;7.93;100.00
78888;BME280;68276;49.326;8.690;2023-04-25T02:55:37;99665.44;;;7.89;100.00
78888;BME280;68276;49.326;8.690;2023-04-25T02:58:02;99668.19;;;7.95;100.00
78888;BME280;68276;49.326;8.690;2023-04-25T03:00:28;99669.28;;;7.86;100.00
78888;BME280;68276;49.326;8.690;2023-04-25T03:02:53;99667.66;;;7.85;100.00
78888;BME280;68276;49.326;8.690;2023-04-25T03:05:19;99668.19;;;7.81;100.00
78888;BME280;68276;49.326;8.690;2023-04-25T03:07:44;99665.16;;;7.84;100.00
78888;BME280;68276;49.326;8.690;2023-04-25T03:10:11;99666.34;;;7.81;100.00
78888;BME280;68276;49.326;8.690;2023-04-25T03:12:36;99664.03;;;7.78;100.00
78888;BME280;68276;49.326;8.690;2023-04-25T03:15:02;99657.66;;;7.79;100.00
78888;BME280;68276;49.326;8.690;2023-04-25T03:17:28;99658.41;;;7.73;100.00
78888;BME280;68276;49.326;8.690;2023-04-25T03:19:55;99650.31;;;7.67;100.00
78888;BME280;68276;49.326;8.690;2023-04-25T03:22:21;99658.41;;;7.73;100.00
78888;BME280;68276;49.326;8.690;2023-04-25T03:24:46;99658.41;;;7.73;100.00
78888;BME280;68276;49.326;8.690;2023-04-25T03:27:15;99653.44;;;7.70;100.00
78888;BME280;68276;49.326;8.690;2023-04-25T03:29:40;99645.59;;;7.69;100.00
78888;BME280;68276;49.326;8.690;2023-04-25T03:32:06;99645.50;;;7.62;100.00
78888;BME280;68276;49.326;8.690;2023-04-25T03:34:31;99659.13;;;7.67;100.00
78888;BME280;68276;49.326;8.690;2023-04-25T03:36:57;99660.81;;;7.68;100.00
78888;BME280;68276;49.326;8.690;2023-04-25T03:39:22;99651.13;;;7.67;100.00
78888;BME280;68276;49.326;8.690;2023-04-25T03:41:47;99652.53;;;7.63;100.00
78888;BME280;68276;49.326;8.690;2023-04-25T03:44:13;99655.00;;;7.65;100.00
78888;BME280;68276;49.326;8.690;2023-04-25T03:46:38;99654.72;;;7.74;100.00
78888;BME280;68276;49.326;8.690;2023-04-25T03:49:04;99659.72;;;7.77;100.00
78888;BME280;68276;49.326;8.690;2023-04-25T03:51:29;99654.81;;;7.81;100.00
78888;BME280;68276;49.326;8.690;2023-04-25T03:53:56;99648.28;;;7.83;100.00
78888;BME280;68276;49.326;8.690;2023-04-25T03:56:21;99655.56;;;7.89;100.00
78888;BME280;68276;49.326;8.690;2023-04-25T03:58:47;99660.09;;;7.89;100.00
78888;BME280;68276;49.326;8.690;2023-04-25T04:01:12;99658.41;;;7.88;100.00
78888;BME280;68276;49.326;8.690;2023-04-25T04:03:37;99661.56;;;7.77;100.00
78888;BME280;68276;49.326;8.690;2023-04-25T04:06:04;99666.25;;;7.75;100.00
78888;BME280;68276;49.326;8.690;2023-04-25T04:08:30;99660.72;;;7.76;100.00
78888;BME280;68276;49.326;8.690;2023-04-25T04:10:57;99664.03;;;7.78;100.00
78888;BME280;68276;49.326;8.690;2023-04-25T04:13:25;99660.16;;;7.81;100.00
78888;BME280;68276;49.326;8.690;2023-04-25T04:15:51;99665.16;;;7.84;100.00
78888;BME280;68276;49.326;8.690;2023-04-25T04:18:16;99654.53;;;7.90;100.00
78888;BME280;68276;49.326;8.690;2023-04-25T04:20:42;99658.88;;;7.91;100.00
78888;BME280;68276;49.326;8.690;2023-04-25T04:23:07;99666.16;;;7.97;100.00
78888;BME280;68276;49.326;8.690;2023-04-25T04:25:32;99666.34;;;7.96;100.00
78888;BME280;68276;49.326;8.690;2023-04-25T04:27:58;99666.16;;;7.97;100.00
78888;BME280;68276;49.326;8.690;2023-04-25T04:30:24;99671.59;;;8.04;100.00
78888;BME280;68276;49.326;8.690;2023-04-25T04:32:51;99671.88;;;8.09;100.00
78888;BME280;68276;49.326;8.690;2023-04-25T04:35:16;99670.41;;;8.06;100.00
78888;BME280;68276;49.326;8.690;2023-04-25T04:37:42;99668.47;;;8.00;100.00
78888;BME280;68276;49.326;8.690;2023-04-25T04:40:09;99677.78;;;8.04;100.00
78888;BME280;68276;49.326;8.690;2023-04-25T04:42:34;99682.22;;;8.12;100.00
78888;BME280;68276;49.326;8.690;2023-04-25T04:45:01;99678.72;;;8.11;100.00
78888;BME280;68276;49.326;8.690;2023-04-25T04:47:27;99678.72;;;8.11;100.00
78888;BME280;68276;49.326;8.690;2023-04-25T04:49:56;99681.47;;;8.03;100.00
78888;BME280;68276;49.326;8.690;2023-04-25T04:52:22;99687.84;;;8.02;100.00
78888;BME280;68276;49.326;8.690;2023-04-25T04:54:47;99680.09;;;7.93;100.00
78888;BME280;68276;49.326;8.690;2023-04-25T04:57:13;99697.03;;;8.00;100.00
78888;BME280;68276;49.326;8.690;2023-04-25T04:59:38;99697.50;;;8.03;100.00
78888;BME280;68276;49.326;8.690;2023-04-25T05:02:03;99710.72;;;8.05;100.00
78888;BME280;68276;49.326;8.690;2023-04-25T05:04:29;99701.69;;;8.06;100.00
78888;BME280;68276;49.326;8.690;2023-04-25T05:06:54;99704.16;;;8.07;100.00
78888;BME280;68276;49.326;8.690;2023-04-25T05:09:19;99699.72;;;8.14;100.00
78888;BME280;68276;49.326;8.690;2023-04-25T05:11:45;99701.56;;;8.14;100.00
78888;BME280;68276;49.326;8.690;2023-04-25T05:14:10;99699.91;;;8.13;100.00
78888;BME280;68276;49.326;8.690;2023-04-25T05:16:36;99701.38;;;8.15;100.00
78888;BME280;68276;49.326;8.690;2023-04-25T05:19:01;99702.31;;;8.23;100.00
78888;BME280;68276;49.326;8.690;2023-04-25T05:21:27;99698.47;;;8.25;100.00
78888;BME280;68276;49.326;8.690;2023-04-25T05:23:54;99702.06;;;8.32;100.00
78888;BME280;68276;49.326;8.690;2023-04-25T05:26:19;99698.38;;;8.33;100.00
78888;BME280;68276;49.326;8.690;2023-04-25T05:28:45;99703.19;;;8.38;100.00
78888;BME280;68276;49.326;8.690;2023-04-25T05:31:11;99699.38;;;8.32;100.00
78888;BME280;68276;49.326;8.690;2023-04-25T05:33:36;99695.28;;;8.51;100.00
78888;BME280;68276;49.326;8.690;2023-04-25T05:36:02;99697.72;;;8.46;100.00
78888;BME280;68276;49.326;8.690;2023-04-25T05:38:27;99691.44;;;8.39;100.00
78888;BME280;68276;49.326;8.690;2023-04-25T05:40:53;99695.03;;;8.46;100.00
78888;BME280;68276;49.326;8.690;2023-04-25T05:43:19;99693.91;;;8.55;100.00
78888;BME280;68276;49.326;8.690;2023-04-25T05:45:44;99695.81;;;8.61;100.00
78888;BME280;68276;49.326;8.690;2023-04-25T05:48:09;99695.09;;;8.67;100.00
78888;BME280;68276;49.326;8.690;2023-04-25T05:50:35;99707.44;;;8.68;100.00
78888;BME280;68276;49.326;8.690;2023-04-25T05:53:00;99706.91;;;8.72;100.00
78888;BME280;68276;49.326;8.690;2023-04-25T05:55:26;99710.13;;;8.68;100.00
78888;BME280;68276;49.326;8.690;2023-04-25T05:57:51;99708.59;;;8.59;100.00
78888;BME280;68276;49.326;8.690;2023-04-25T06:00:17;99720.16;;;8.45;100.00
78888;BME280;68276;49.326;8.690;2023-04-25T06:02:43;99718.59;;;8.36;100.00
78888;BME280;68276;49.326;8.690;2023-04-25T06:05:09;99720.50;;;8.42;100.00
78888;BME280;68276;49.326;8.690;2023-04-25T06:07:34;99719.00;;;8.54;100.00
78888;BME280;68276;49.326;8.690;2023-04-25T06:10:00;99725.22;;;8.40;100.00
78888;BME280;68276;49.326;8.690;2023-04-25T06:12:26;99724.59;;;8.38;100.00
78888;BME280;68276;49.326;8.690;2023-04-25T06:14:51;99728.72;;;8.40;100.00
78888;BME280;68276;49.326;8.690;2023-04-25T06:17:17;99722.72;;;8.38;100.00
78888;BME280;68276;49.326;8.690;2023-04-25T06:19:42;99731.97;;;8.36;100.00
78888;BME280;68276;49.326;8.690;2023-04-25T06:22:08;99725.97;;;8.34;100.00
78888;BME280;68276;49.326;8.690;2023-04-25T06:24:34;99731.41;;;8.40;100.00
78888;BME280;68276;49.326;8.690;2023-04-25T06:26:59;99732.69;;;8.44;100.00
78888;BME280;68276;49.326;8.690;2023-04-25T06:29:25;99732.22;;;8.41;100.00
78888;BME280;68276;49.326;8.690;2023-04-25T06:31:51;99729.75;;;8.39;100.00
78888;BME280;68276;49.326;8.690;2023-04-25T06:34:16;99726.50;;;8.44;100.00
78888;BME280;68276;49.326;8.690;2023-04-25T06:36:42;99726.31;;;8.60;100.00
78888;BME280;68276;49.326;8.690;2023-04-25T06:39:09;99728.13;;;8.59;100.00
78888;BME280;68276;49.326;8.690;2023-04-25T06:41:34;99730.34;;;8.56;100.00
78888;BME280;68276;49.326;8.690;2023-04-25T06:44:00;99729.50;;;8.70;100.00
78888;BME280;68276;49.326;8.690;2023-04-25T06:46:26;99724.13;;;8.84;100.00
78888;BME280;68276;49.326;8.690;2023-04-25T06:48:51;99725.13;;;8.83;100.00
78888;BME280;68276;49.326;8.690;2023-04-25T06:51:17;99730.84;;;8.95;100.00
78888;BME280;68276;49.326;8.690;2023-04-25T06:53:42;99735.75;;;8.91;100.00
78888;BME280;68276;49.326;8.690;2023-04-25T06:56:08;99743.97;;;8.90;100.00
78888;BME280;68276;49.326;8.690;2023-04-25T06:58:33;99738.72;;;8.82;100.00
78888;BME280;68276;49.326;8.690;2023-04-25T07:00:59;99744.72;;;8.84;100.00
78888;BME280;68276;49.326;8.690;2023-04-25T07:03:24;99749.34;;;8.90;100.00
78888;BME280;68276;49.326;8.690;2023-04-25T07:05:50;99735.97;;;8.75;100.00
78888;BME280;68276;49.326;8.690;2023-04-25T07:08:16;99738.31;;;8.85;100.00
78888;BME280;68276;49.326;8.690;2023-04-25T07:10:41;99741.16;;;8.98;100.00
78888;BME280;68276;49.326;8.690;2023-04-25T07:13:07;99743.72;;;9.06;100.00
78888;BME280;68276;49.326;8.690;2023-04-25T07:15:32;99744.38;;;9.08;100.00
78888;BME280;68276;49.326;8.690;2023-04-25T07:17:58;99745.22;;;9.08;100.00
78888;BME280;68276;49.326;8.690;2023-04-25T07:20:23;99741.38;;;8.96;100.00
78888;BME280;68276;49.326;8.690;2023-04-25T07:22:49;99746.16;;;9.01;100.00
78888;BME280;68276;49.326;8.690;2023-04-25T07:25:15;99746.91;;;8.95;100.00
78888;BME280;68276;49.326;8.690;2023-04-25T07:27:41;99748.19;;;8.99;100.00
78888;BME280;68276;49.326;8.690;2023-04-25T07:30:07;99751.09;;;8.83;100.00
78888;BME280;68276;49.326;8.690;2023-04-25T07:32:33;99756.56;;;8.75;100.00
78888;BME280;68276;49.326;8.690;2023-04-25T07:34:58;99756.84;;;8.51;100.00
78888;BME280;68276;49.326;8.690;2023-04-25T07:37:24;99755.56;;;8.47;100.00
78888;BME280;68276;49.326;8.690;2023-04-25T07:39:54;99764.81;;;8.44;100.00
78888;BME280;68276;49.326;8.690;2023-04-25T07:42:22;99758.72;;;8.36;100.00
78888;BME280;68276;49.326;8.690;2023-04-25T07:44:48;99763.16;;;8.43;100.00
78888;BME280;68276;49.326;8.690;2023-04-25T07:47:13;99765.56;;;8.24;100.00
78888;BME280;68276;49.326;8.690;2023-04-25T07:49:38;99766.53;;;8.23;100.00
78888;BME280;68276;49.326;8.690;2023-04-25T07:52:05;99771.38;;;8.27;100.00
78888;BME280;68276;49.326;8.690;2023-04-25T07:54:33;99769.66;;;8.11;100.00
78888;BME280;68276;49.326;8.690;2023-04-25T07:56:58;99777.59;;;8.20;100.00
78888;BME280;68276;49.326;8.690;2023-04-25T07:59:24;99779.44;;;8.19;100.00
78888;BME280;68276;49.326;8.690;2023-04-25T08:01:50;99776.91;;;8.26;100.00
78888;BME280;68276;49.326;8.690;2023-04-25T08:04:16;99783.53;;;8.30;100.00
78888;BME280;68276;49.326;8.690;2023-04-25T08:06:42;99790.56;;;8.31;100.00
78888;BME280;68276;49.326;8.690;2023-04-25T08:09:08;99796.09;;;8.44;100.00
78888;BME280;68276;49.326;8.690;2023-04-25T08:11:34;99792.50;;;8.51;100.00
78888;BME280;68276;49.326;8.690;2023-04-25T08:14:00;99798.78;;;8.58;100.00
78888;BME280;68276;49.326;8.690;2023-04-25T08:16:25;99806.88;;;8.65;100.00
78888;BME280;68276;49.326;8.690;2023-04-25T08:18:51;99807.63;;;8.73;100.00
78888;BME280;68276;49.326;8.690;2023-04-25T08:21:16;99808.34;;;8.82;100.00
78888;BME280;68276;49.326;8.690;2023-04-25T08:23:42;99811.88;;;8.82;100.00
78888;BME280;68276;49.326;8.690;2023-04-25T08:26:07;99816.66;;;8.87;100.00
78888;BME280;68276;49.326;8.690;2023-04-25T08:28:32;99824.69;;;8.87;100.00
78888;BME280;68276;49.326;8.690;2023-04-25T08:30:58;99833.16;;;9.05;100.00
78888;BME280;68276;49.326;8.690;2023-04-25T08:33:23;99838.47;;;8.84;100.00
78888;BME280;68276;49.326;8.690;2023-04-25T08:35:49;99849.41;;;9.18;100.00
78888;BME280;68276;49.326;8.690;2023-04-25T08:38:14;99841.31;;;8.82;100.00
78888;BME280;68276;49.326;8.690;2023-04-25T08:40:40;99853.22;;;8.94;100.00
78888;BME280;68276;49.326;8.690;2023-04-25T08:43:06;99854.09;;;9.16;100.00
78888;BME280;68276;49.326;8.690;2023-04-25T08:45:39;99854.16;;;9.01;100.00
78888;BME280;68276;49.326;8.690;2023-04-25T08:48:11;99857.88;;;9.36;100.00
78888;BME280;68276;49.326;8.690;2023-04-25T08:50:45;99857.59;;;9.31;100.00
78888;BME280;68276;49.326;8.690;2023-04-25T08:53:12;99864.13;;;9.43;96.84
78888;BME280;68276;49.326;8.690;2023-04-25T08:55:43;99862.16;;;9.52;96.69
78888;BME280;68276;49.326;8.690;2023-04-25T08:58:10;99865.78;;;9.44;97.28
78888;BME280;68276;49.326;8.690;2023-04-25T09:00:36;99866.16;;;9.41;91.65
78888;BME280;68276;49.326;8.690;2023-04-25T09:03:02;99871.91;;;9.38;92.76
78888;BME280;68276;49.326;8.690;2023-04-25T09:05:28;99868.22;;;9.60;89.81
78888;BME280;68276;49.326;8.690;2023-04-25T09:07:53;99875.78;;;9.71;90.17
78888;BME280;68276;49.326;8.690;2023-04-25T09:10:19;99887.25;;;9.65;92.69
78888;BME280;68276;49.326;8.690;2023-04-25T09:12:44;99886.78;;;9.76;90.76
78888;BME280;68276;49.326;8.690;2023-04-25T09:15:12;99886.53;;;9.71;89.13
78888;BME280;68276;49.326;8.690;2023-04-25T09:17:37;99893.53;;;9.93;92.85
78888;BME280;68276;49.326;8.690;2023-04-25T09:20:08;99892.25;;;9.89;88.44
78888;BME280;68276;49.326;8.690;2023-04-25T09:22:35;99889.31;;;9.84;87.94
78888;BME280;68276;49.326;8.690;2023-04-25T09:25:09;99897.97;;;9.80;87.29
78888;BME280;68276;49.326;8.690;2023-04-25T09:27:35;99906.75;;;9.74;86.28
78888;BME280;68276;49.326;8.690;2023-04-25T09:30:02;99900.38;;;9.75;84.00
78888;BME280;68276;49.326;8.690;2023-04-25T09:32:28;99904.22;;;9.87;84.49
78888;BME280;68276;49.326;8.690;2023-04-25T09:34:57;99906.56;;;9.96;83.96
78888;BME280;68276;49.326;8.690;2023-04-25T09:37:25;99913.25;;;10.21;83.57
78888;BME280;68276;49.326;8.690;2023-04-25T09:39:53;99907.75;;;10.57;83.61
78888;BME280;68276;49.326;8.690;2023-04-25T09:42:25;99908.81;;;10.35;80.33
78888;BME280;68276;49.326;8.690;2023-04-25T09:44:55;99909.47;;;10.65;80.87
78888;BME280;68276;49.326;8.690;2023-04-25T09:47:22;99909.94;;;10.75;78.56
78888;BME280;68276;49.326;8.690;2023-04-25T09:49:49;99910.34;;;10.72;79.93
78888;BME280;68276;49.326;8.690;2023-04-25T09:52:20;99918.31;;;10.37;81.07
78888;BME280;68276;49.326;8.690;2023-04-25T09:54:46;99922.06;;;10.36;83.15
78888;BME280;68276;49.326;8.690;2023-04-25T09:57:20;99925.59;;;10.65;80.67
78888;BME280;68276;49.326;8.690;2023-04-25T09:59:48;99921.84;;;10.93;77.97
78888;BME280;68276;49.326;8.690;2023-04-25T10:02:18;99933.19;;;10.89;77.70
78888;BME280;68276;49.326;8.690;2023-04-25T10:04:49;99934.38;;;10.80;78.22
78888;BME280;68276;49.326;8.690;2023-04-25T10:07:18;99926.91;;;11.09;78.59
78888;BME280;68276;49.326;8.690;2023-04-25T10:09:48;99931.03;;;11.46;78.06
78888;BME280;68276;49.326;8.690;2023-04-25T10:12:15;99936.28;;;11.26;75.64
78888;BME280;68276;49.326;8.690;2023-04-25T10:14:42;99942.75;;;11.32;76.51
78888;BME280;68276;49.326;8.690;2023-04-25T10:17:10;99930.94;;;11.33;73.23
78888;BME280;68276;49.326;8.690;2023-04-25T10:19:36;99934.03;;;11.30;75.29
78888;BME280;68276;49.326;8.690;2023-04-25T10:22:13;99939.81;;;11.27;75.16
78888;BME280;68276;49.326;8.690;2023-04-25T10:24:41;99939.66;;;11.35;74.46
78888;BME280;68276;49.326;8.690;2023-04-25T10:27:07;99947.03;;;11.67;72.93
78888;BME280;68276;49.326;8.690;2023-04-25T10:29:33;99944.50;;;11.59;71.63
78888;BME280;68276;49.326;8.690;2023-04-25T10:31:58;99954.59;;;11.44;71.21
78888;BME280;68276;49.326;8.690;2023-04-25T10:34:37;99950.06;;;11.51;70.60
78888;BME280;68276;49.326;8.690;2023-04-25T10:37:03;99948.81;;;11.47;67.99
78888;BME280;68276;49.326;8.690;2023-04-25T10:39:29;99955.91;;;11.61;69.82
78888;BME280;68276;49.326;8.690;2023-04-25T10:41:58;99957.31;;;11.57;69.89
78888;BME280;68276;49.326;8.690;2023-04-25T10:44:28;99960.47;;;11.20;70.35
78888;BME280;68276;49.326;8.690;2023-04-25T10:46:58;99963.84;;;11.35;72.34
78888;BME280;68276;49.326;8.690;2023-04-25T10:49:34;99968.19;;;11.36;72.45
78888;BME280;68276;49.326;8.690;2023-04-25T10:52:16;99966.16;;;10.76;73.04
78888;BME280;68276;49.326;8.690;2023-04-25T11:02:30;99973.38;;;11.03;65.15
78888;BME280;68276;49.326;8.690;2023-04-25T11:04:56;99976.47;;;11.34;64.53
78888;BME280;68276;49.326;8.690;2023-04-25T11:07:39;99971.38;;;11.52;67.08
78888;BME280;68276;49.326;8.690;2023-04-25T11:10:10;99973.19;;;11.39;66.58
78888;BME280;68276;49.326;8.690;2023-04-25T11:12:36;99978.56;;;11.39;67.07
78888;BME280;68276;49.326;8.690;2023-04-25T11:15:07;99981.22;;;11.73;64.55
78888;BME280;68276;49.326;8.690;2023-04-25T11:17:33;99975.50;;;11.48;66.25
78888;BME280;68276;49.326;8.690;2023-04-25T11:20:00;99974.16;;;11.25;65.93
78888;BME280;68276;49.326;8.690;2023-04-25T11:22:27;99973.34;;;10.97;69.14
78888;BME280;68276;49.326;8.690;2023-04-25T11:24:52;99975.81;;;10.98;70.61
78888;BME280;68276;49.326;8.690;2023-04-25T11:27:18;99973.63;;;10.81;73.38
78888;BME280;68276;49.326;8.690;2023-04-25T11:29:44;99982.38;;;10.89;73.85
78888;BME280;68276;49.326;8.690;2023-04-25T11:32:09;99984.34;;;10.74;73.68
78888;BME280;68276;49.326;8.690;2023-04-25T11:34:35;99977.19;;;10.88;73.08
78888;BME280;68276;49.326;8.690;2023-04-25T11:37:01;99981.06;;;10.79;72.72
78888;BME280;68276;49.326;8.690;2023-04-25T11:39:28;99982.81;;;10.93;74.12
78888;BME280;68276;49.326;8.690;2023-04-25T11:41:54;99986.94;;;10.89;74.72
78888;BME280;68276;49.326;8.690;2023-04-25T11:44:20;99985.75;;;10.98;75.68
78888;BME280;68276;49.326;8.690;2023-04-25T11:46:47;99995.19;;;11.15;72.25
78888;BME280;68276;49.326;8.690;2023-04-25T11:49:13;99994.19;;;11.22;72.74
78888;BME280;68276;49.326;8.690;2023-04-25T11:51:42;99994.53;;;11.13;73.06
78888;BME280;68276;49.326;8.690;2023-04-25T11:54:08;100000.47;;;11.02;77.53
78888;BME280;68276;49.326;8.690;2023-04-25T11:56:34;100000.06;;;11.05;75.00
78888;BME280;68276;49.326;8.690;2023-04-25T11:59:01;99995.09;;;11.36;69.90
78888;BME280;68276;49.326;8.690;2023-04-25T12:01:32;100002.16;;;11.78;69.03
78888;BME280;68276;49.326;8.690;2023-04-25T12:03:58;100010.00;;;12.52;65.87
78888;BME280;68276;49.326;8.690;2023-04-25T12:06:30;100004.41;;;12.41;62.50
78888;BME280;68276;49.326;8.690;2023-04-25T12:09:03;100002.94;;;12.19;64.58
78888;BME280;68276;49.326;8.690;2023-04-25T12:11:40;100014.28;;;12.08;66.04
78888;BME280;68276;49.326;8.690;2023-04-25T12:14:06;100016.53;;;12.04;64.98
78888;BME280;68276;49.326;8.690;2023-04-25T12:16:44;100020.63;;;11.87;62.95
78888;BME280;68276;49.326;8.690;2023-04-25T12:19:13;100019.00;;;11.93;62.73
78888;BME280;68276;49.326;8.690;2023-04-25T12:21:39;100019.22;;;11.91;62.43
78888;BME280;68276;49.326;8.690;2023-04-25T12:24:22;100015.69;;;11.91;63.41
78888;BME280;68276;49.326;8.690;2023-04-25T12:26:53;100020.94;;;11.65;65.95
78888;BME280;68276;49.326;8.690;2023-04-25T12:29:25;100014.19;;;11.47;66.81
78888;BME280;68276;49.326;8.690;2023-04-25T12:31:52;100027.59;;;11.69;67.35
78888;BME280;68276;49.326;8.690;2023-04-25T12:34:19;100029.91;;;11.85;63.45
78888;BME280;68276;49.326;8.690;2023-04-25T12:36:44;100029.31;;;11.55;63.07
78888;BME280;68276;49.326;8.690;2023-04-25T12:39:17;100026.50;;;11.63;64.34
78888;BME280;68276;49.326;8.690;2023-04-25T12:41:44;100026.56;;;11.70;64.02
78888;BME280;68276;49.326;8.690;2023-04-25T12:44:10;100023.53;;;11.86;63.86
78888;BME280;68276;49.326;8.690;2023-04-25T12:46:36;100018.25;;;12.18;62.40
78888;BME280;68276;49.326;8.690;2023-04-25T12:49:03;100030.41;;;11.61;63.72
78888;BME280;68276;49.326;8.690;2023-04-25T12:51:29;100027.66;;;11.88;64.68
78888;BME280;68276;49.326;8.690;2023-04-25T12:53:54;100035.47;;;11.70;64.21
78888;BME280;68276;49.326;8.690;2023-04-25T12:56:20;100038.28;;;12.03;64.17
78888;BME280;68276;49.326;8.690;2023-04-25T12:58:46;100036.66;;;12.15;62.78
78888;BME280;68276;49.326;8.690;2023-04-25T13:01:13;100029.66;;;12.33;63.21
78888;BME280;68276;49.326;8.690;2023-04-25T13:03:39;100037.88;;;12.12;62.78